Time;durP1;ratioP1;P1;durP2;ratioP2;P2;SDS_P1;SDS_P2;PMS_P1;PMS_P2;Temp;Humidity;BMP_temperature;BMP_pressure;BME280_temperature;BME280_humidity;BME280_pressure;Samples;Min_cycle;Max_cycle;Signal;HPM_P1;HPM_P2
2022/11/07 00:00:22;;;;;;;14.13;10.10;;;;;;;;;;5087455;28;20422;-76
2022/11/07 00:02:48;;;;;;;13.30;9.50;;;;;;;;;;5091348;28;20402;-76
2022/11/07 00:05:14;;;;;;;12.48;9.60;;;;;;;;;;5091356;28;20424;-76
2022/11/07 00:07:40;;;;;;;16.23;9.73;;;;;;;;;;5093231;28;20402;-76
2022/11/07 00:10:06;;;;;;;15.00;9.35;;;;;;;;;;5089262;28;20398;-76
2022/11/07 00:12:35;;;;;;;15.85;9.13;;;;;;;;;;5091212;28;20913;-76
2022/11/07 00:15:02;;;;;;;15.13;9.23;;;;;;;;;;5086837;28;20467;-76
2022/11/07 00:17:28;;;;;;;12.93;9.40;;;;;;;;;;5088454;28;20410;-75
2022/11/07 00:19:54;;;;;;;14.52;9.10;;;;;;;;;;5091774;28;20394;-76
2022/11/07 00:22:20;;;;;;;17.10;9.00;;;;;;;;;;5091722;28;20402;-76
2022/11/07 00:24:46;;;;;;;16.55;9.25;;;;;;;;;;5091618;28;20972;-75
2022/11/07 00:29:20;;;;;;;12.23;9.10;;;;;;;;;;5108161;27;20455;-75
2022/11/07 00:31:46;;;;;;;13.70;9.20;;;;;;;;;;5091782;28;20520;-76
2022/11/07 00:34:13;;;;;;;11.40;8.60;;;;;;;;;;5070726;28;20430;-75
2022/11/07 00:36:39;;;;;;;15.13;8.90;;;;;;;;;;5130949;27;20563;-75
2022/11/07 00:39:05;;;;;;;16.08;9.10;;;;;;;;;;5106755;28;20423;-75
2022/11/07 00:41:33;;;;;;;12.47;8.40;;;;;;;;;;5102220;28;20524;-76
2022/11/07 00:43:59;;;;;;;17.17;8.60;;;;;;;;;;5111402;28;21076;-75
2022/11/07 00:46:25;;;;;;;13.45;8.70;;;;;;;;;;5103232;28;20435;-75
2022/11/07 00:48:51;;;;;;;16.23;8.05;;;;;;;;;;5088280;28;20476;-75
2022/11/07 00:51:19;;;;;;;14.43;8.33;;;;;;;;;;5120577;28;20432;-75
2022/11/07 00:53:45;;;;;;;16.20;7.97;;;;;;;;;;5138590;27;20448;-74
2022/11/07 00:56:13;;;;;;;13.60;7.53;;;;;;;;;;5128240;27;20434;-75
2022/11/07 00:58:40;;;;;;;17.43;8.10;;;;;;;;;;5134417;27;20421;-75
2022/11/07 01:01:07;;;;;;;12.77;7.80;;;;;;;;;;5096752;28;20477;-75
2022/11/07 01:06:18;;;;;;;12.82;7.70;;;;;;;;;;5067022;28;20451;-75
2022/11/07 01:08:44;;;;;;;12.73;7.43;;;;;;;;;;5093105;28;20501;-75
2022/11/07 01:11:10;;;;;;;11.27;7.28;;;;;;;;;;5083216;28;20813;-75
2022/11/07 01:13:36;;;;;;;15.63;8.00;;;;;;;;;;5119466;27;20430;-75
2022/11/07 01:16:02;;;;;;;13.35;7.90;;;;;;;;;;5131069;27;20422;-76
2022/11/07 01:18:28;;;;;;;15.55;8.05;;;;;;;;;;5078479;28;20501;-75
2022/11/07 01:20:54;;;;;;;14.43;8.05;;;;;;;;;;5090218;28;20421;-76
2022/11/07 01:23:21;;;;;;;14.27;7.78;;;;;;;;;;5115844;27;20531;-75
2022/11/07 01:25:48;;;;;;;13.03;8.10;;;;;;;;;;5106779;28;20404;-75
2022/11/07 01:28:14;;;;;;;16.00;8.02;;;;;;;;;;5104307;28;20436;-75
2022/11/07 01:30:41;;;;;;;14.10;7.55;;;;;;;;;;5097194;28;20418;-75
2022/11/07 01:33:07;;;;;;;14.55;7.50;;;;;;;;;;5080493;28;20411;-75
2022/11/07 01:35:35;;;;;;;14.82;7.47;;;11.00;99.90;;;;;;5094263;28;20421;-75
2022/11/07 01:38:01;;;;;;;13.70;7.22;;;;;;;;;;5085962;28;20420;-75
2022/11/07 01:40:27;;;;;;;16.08;7.65;;;;;;;;;;5075827;28;20433;-75
2022/11/07 01:42:53;;;;;;;18.23;7.57;;;;;;;;;;5069469;28;20469;-75
2022/11/07 01:45:21;;;;;;;13.63;6.50;;;;;;;;;;5065397;28;20835;-75
2022/11/07 01:47:48;;;;;;;12.25;7.28;;;;;;;;;;5072667;28;20978;-75
2022/11/07 01:50:14;;;;;;;12.75;7.25;;;;;;;;;;5071495;28;20419;-74
2022/11/07 01:52:43;;;;;;;12.85;6.53;;;10.80;99.90;;;;;;5082006;28;20492;-75
2022/11/07 01:55:15;;;;;;;12.55;6.93;;;;;;;;;;5078506;28;20421;-75
2022/11/07 01:57:47;;;;;;;14.88;6.60;;;;;;;;;;5082942;28;20723;-75
2022/11/07 02:00:15;;;;;;;14.13;6.37;;;;;;;;;;5074731;28;20929;-75
2022/11/07 02:02:41;;;;;;;13.93;6.80;;;;;;;;;;5092888;28;20467;-74
2022/11/07 02:05:08;;;;;;;14.13;6.50;;;;;;;;;;5092583;28;21015;-75
2022/11/07 02:07:37;;;;;;;14.80;6.63;;;11.10;99.90;;;;;;5083615;28;20452;-74
2022/11/07 02:10:03;;;;;;;16.20;7.28;;;;;;;;;;5075785;28;20447;-75
2022/11/07 02:12:29;;;;;;;16.20;6.38;;;;;;;;;;5073770;28;20548;-75
2022/11/07 02:14:55;;;;;;;15.67;6.80;;;;;;;;;;5057594;28;20419;-75
2022/11/07 02:17:21;;;;;;;15.02;6.65;;;;;;;;;;5072524;28;20400;-74
2022/11/07 02:19:49;;;;;;;15.05;6.53;;;;;;;;;;5071796;28;20484;-74
2022/11/07 02:22:34;;;;;;;16.45;7.50;;;;;;;;;;5087762;28;20418;-74
2022/11/07 02:25:02;;;;;;;16.55;7.43;;;;;;;;;;5087656;28;20938;-74
2022/11/07 02:27:29;;;;;;;16.35;8.13;;;;;;;;;;5086350;28;20472;-74
2022/11/07 02:29:58;;;;;;;16.58;8.38;;;;;;;;;;5046829;28;20415;-74
2022/11/07 02:32:24;;;;;;;17.33;7.75;;;;;;;;;;5054878;28;20413;-74
2022/11/07 02:35:00;;;;;;;18.70;7.60;;;;;;;;;;5059120;28;20430;-74
2022/11/07 02:37:31;;;;;;;15.38;7.57;;;11.00;99.90;;;;;;5078985;28;20512;-74
2022/11/07 02:39:59;;;;;;;16.83;7.40;;;;;;;;;;5071905;28;20756;-74
2022/11/07 02:42:42;;;;;;;17.58;7.40;;;;;;;;;;5081247;28;20424;-74
2022/11/07 02:45:09;;;;;;;13.98;6.78;;;;;;;;;;5087944;28;20770;-74
2022/11/07 02:47:35;;;;;;;14.30;6.00;;;;;;;;;;5052983;28;20422;-74
2022/11/07 02:50:01;;;;;;;15.30;5.88;;;;;;;;;;5046029;28;20420;-74
2022/11/07 02:52:27;;;;;;;13.13;5.13;;;;;;;;;;5065547;28;20503;-74
2022/11/07 02:54:54;;;;;;;12.50;6.80;;;;;;;;;;5058194;28;20495;-74
2022/11/07 02:57:20;;;;;;;12.00;6.53;;;;;;;;;;5071658;28;20419;-74
2022/11/07 02:59:46;;;;;;;14.63;6.65;;;;;;;;;;5045559;28;20507;-74
2022/11/07 03:02:12;;;;;;;15.52;6.65;;;;;;;;;;5081605;28;20417;-75
2022/11/07 03:04:38;;;;;;;17.13;6.80;;;;;;;;;;5052542;28;20419;-75
2022/11/07 03:07:04;;;;;;;15.48;6.95;;;;;;;;;;5074530;28;20413;-75
2022/11/07 03:09:30;;;;;;;16.73;6.82;;;;;;;;;;5077692;28;20450;-75
2022/11/07 03:11:56;;;;;;;19.92;7.07;;;;;;;;;;5080742;28;20418;-75
2022/11/07 03:14:22;;;;;;;15.60;6.53;;;;;;;;;;5087052;28;20417;-74
2022/11/07 03:16:48;;;;;;;14.82;6.25;;;;;;;;;;5055313;28;20807;-74
2022/11/07 03:19:15;;;;;;;13.23;5.95;;;;;;;;;;5072265;28;20448;-74
2022/11/07 03:21:41;;;;;;;15.65;6.30;;;;;;;;;;5072085;28;20422;-74
2022/11/07 03:24:07;;;;;;;16.13;5.72;;;;;;;;;;5063420;28;20497;-74
2022/11/07 03:26:33;;;;;;;14.47;5.23;;;;;;;;;;5066935;28;21770;-74
2022/11/07 03:29:02;;;;;;;14.10;4.63;;;;;;;;;;5034548;28;20429;-74
2022/11/07 03:31:28;;;;;;;13.13;5.18;;;;;;;;;;5069950;28;20479;-74
2022/11/07 03:33:54;;;;;;;15.82;5.10;;;;;;;;;;5076820;28;20420;-74
2022/11/07 03:36:20;;;;;;;13.90;4.70;;;;;;;;;;5091185;28;20731;-75
2022/11/07 03:38:46;;;;;;;14.63;4.70;;;;;;;;;;5064924;28;21744;-76
2022/11/07 03:41:16;;;;;;;11.52;5.07;;;;;;;;;;5089019;28;20421;-76
2022/11/07 03:43:44;;;;;;;16.67;5.22;;;;;;;;;;5090728;28;20488;-76
2022/11/07 03:46:10;;;;;;;15.07;5.15;;;;;;;;;;5066040;28;20505;-76
2022/11/07 03:48:36;;;;;;;14.20;5.10;;;;;;;;;;5067548;28;20419;-76
2022/11/07 03:51:03;;;;;;;15.10;5.30;;;;;;;;;;5051834;28;20753;-76
2022/11/07 03:53:29;;;;;;;17.40;5.40;;;;;;;;;;5050373;28;20397;-76
2022/11/07 03:55:55;;;;;;;15.88;5.70;;;;;;;;;;5050675;28;20398;-76
2022/11/07 03:58:21;;;;;;;15.85;5.40;;;;;;;;;;5081914;28;20457;-76
2022/11/07 04:00:47;;;;;;;14.60;5.15;;;;;;;;;;5078989;28;20470;-76
2022/11/07 04:03:13;;;;;;;18.60;5.65;;;;;;;;;;5073560;28;20409;-75
2022/11/07 04:05:39;;;;;;;16.20;5.80;;;;;;;;;;5082716;28;20417;-75
2022/11/07 04:08:05;;;;;;;17.88;5.50;;;;;;;;;;5088874;28;20421;-75
2022/11/07 04:10:31;;;;;;;17.88;5.80;;;;;;;;;;5049398;28;20429;-75
2022/11/07 04:18:28;;;;;;;17.10;5.60;;;;;;;;;;5090465;28;20418;-75
2022/11/07 04:20:54;;;;;;;17.25;5.75;;;;;;;;;;5069778;28;20448;-75
2022/11/07 04:23:20;;;;;;;15.27;5.90;;;;;;;;;;5073889;28;20445;-75
2022/11/07 04:28:31;;;;;;;14.00;5.63;;;;;;;;;;5088580;28;20435;-75
2022/11/07 04:30:57;;;;;;;15.00;5.18;;;;;;;;;;5088875;28;20420;-75
2022/11/07 04:33:23;;;;;;;13.70;5.63;;;;;;;;;;5081606;28;20423;-75
2022/11/07 04:35:49;;;;;;;16.80;5.18;;;;;;;;;;5090350;28;20783;-75
2022/11/07 04:38:15;;;;;;;13.60;5.22;;;;;;;;;;5073804;28;20415;-75
2022/11/07 04:40:41;;;;;;;14.85;5.82;;;;;;;;;;5070005;28;20495;-75
2022/11/07 04:43:08;;;;;;;17.45;5.88;;;10.70;99.90;;;;;;5061668;28;20471;-75
2022/11/07 04:45:38;;;;;;;14.65;5.65;;;;;;;;;;5053881;28;20423;-76
2022/11/07 04:48:04;;;;;;;17.45;6.28;;;;;;;;;;5086814;28;20422;-76
2022/11/07 04:50:30;;;;;;;17.38;5.78;;;;;;;;;;5088710;28;20441;-75
2022/11/07 04:52:56;;;;;;;20.15;6.43;;;;;;;;;;5066302;28;20416;-75
2022/11/07 04:55:25;;;;;;;15.73;6.50;;;10.80;99.90;;;;;;5080121;28;20533;-76
2022/11/07 04:57:51;;;;;;;14.90;6.55;;;;;;;;;;5078241;28;20764;-76
2022/11/07 05:00:18;;;;;;;16.25;6.70;;;;;;;;;;5066156;28;20425;-76
2022/11/07 05:02:44;;;;;;;17.67;6.50;;;;;;;;;;5050763;28;20469;-75
2022/11/07 05:05:10;;;;;;;15.30;6.68;;;;;;;;;;5077385;28;20759;-76
2022/11/07 05:07:37;;;;;;;14.52;6.70;;;;;;;;;;5053043;28;20507;-75
2022/11/07 05:10:04;;;;;;;19.08;6.75;;;10.70;99.90;;;;;;5069506;28;20404;-75
2022/11/07 05:12:30;;;;;;;20.65;7.03;;;;;;;;;;5063661;28;20415;-75
2022/11/07 05:14:56;;;;;;;16.73;7.15;;;;;;;;;;5066009;28;20982;-75
2022/11/07 05:17:22;;;;;;;18.60;7.20;;;;;;;;;;5071951;28;20429;-74
2022/11/07 05:19:48;;;;;;;17.35;7.25;;;;;;;;;;5076509;28;20406;-75
2022/11/07 05:24:59;;;;;;;22.23;7.40;;;;;;;;;;5053052;28;20401;-75
2022/11/07 05:27:25;;;;;;;19.02;7.10;;;;;;;;;;5083226;28;20506;-77
2022/11/07 05:29:51;;;;;;;18.63;7.17;;;;;;;;;;5093422;28;20402;-77
2022/11/07 05:32:18;;;;;;;19.90;7.43;;;;;;;;;;5073111;28;20747;-75
2022/11/07 05:34:44;;;;;;;26.57;8.67;;;;;;;;;;5052739;28;20858;-74
2022/11/07 05:37:10;;;;;;;20.20;7.57;;;;;;;;;;5057886;28;20514;-76
2022/11/07 05:39:37;;;;;;;16.92;7.75;;;;;;;;;;5087226;28;20447;-77
2022/11/07 05:42:03;;;;;;;19.75;7.68;;;;;;;;;;5056134;28;20421;-77
2022/11/07 05:44:30;;;;;;;21.27;7.95;;;;;;;;;;5052554;28;20419;-77
2022/11/07 05:46:56;;;;;;;17.70;7.70;;;;;;;;;;5051896;28;20421;-76
2022/11/07 05:49:23;;;;;;;19.33;7.85;;;;;;;;;;5080255;28;20426;-76
2022/11/07 05:51:50;;;;;;;17.88;7.65;;;;;;;;;;5091804;28;20509;-76
2022/11/07 05:54:16;;;;;;;19.33;8.40;;;;;;;;;;5089326;28;20841;-75
2022/11/07 05:56:42;;;;;;;20.70;8.30;;;;;;;;;;5091600;28;20401;-75
2022/11/07 05:59:09;;;;;;;20.50;8.03;;;10.50;99.90;;;;;;5087023;28;20998;-73
2022/11/07 06:01:35;;;;;;;17.48;8.10;;;10.60;99.90;;;;;;5080554;28;20469;-73
2022/11/07 06:04:02;;;;;;;16.05;8.45;;;;;;;;;;5078740;28;20426;-73
2022/11/07 06:06:30;;;;;;;17.13;8.30;;;;;;;;;;5072888;28;20419;-73
2022/11/07 06:08:56;;;;;;;21.80;8.48;;;10.70;99.90;;;;;;5064033;28;20814;-73
2022/11/07 06:11:22;;;;;;;22.58;7.80;;;;;;;;;;5071312;28;20422;-73
2022/11/07 06:13:48;;;;;;;19.75;7.72;;;;;;;;;;5084326;28;20420;-73
2022/11/07 06:16:14;;;;;;;16.70;7.47;;;;;;;;;;5075592;28;20494;-74
2022/11/07 06:18:41;;;;;;;18.95;7.55;;;;;;;;;;5072106;28;20412;-75
2022/11/07 06:21:07;;;;;;;19.08;7.40;;;;;;;;;;5071359;28;20905;-75
2022/11/07 06:23:33;;;;;;;12.52;6.55;;;;;;;;;;5072778;28;20791;-76
2022/11/07 06:25:59;;;;;;;16.30;6.93;;;;;;;;;;5073211;28;20396;-74
2022/11/07 06:28:25;;;;;;;15.85;7.30;;;;;;;;;;5067355;28;20427;-75
2022/11/07 06:30:51;;;;;;;15.07;7.00;;;;;;;;;;5073243;28;20903;-76
2022/11/07 06:33:18;;;;;;;16.02;7.38;;;;;;;;;;5083978;28;20421;-75
2022/11/07 06:35:44;;;;;;;16.00;6.87;;;;;;;;;;5090808;28;20455;-75
2022/11/07 06:38:12;;;;;;;15.13;6.55;;;10.70;99.90;;;;;;5090877;28;20433;-75
2022/11/07 06:40:40;;;;;;;13.50;5.40;;;;;;;;;;5077143;28;20884;-76
2022/11/07 06:43:10;;;;;;;12.60;4.90;;;;;;;;;;5079272;28;20536;-76
2022/11/07 06:45:36;;;;;;;12.38;4.72;;;;;;;;;;5056271;28;20456;-76
2022/11/07 06:48:03;;;;;;;12.10;5.10;;;;;;;;;;5093281;28;20435;-75
2022/11/07 06:50:29;;;;;;;15.20;5.47;;;;;;;;;;5088271;28;20503;-74
2022/11/07 06:52:55;;;;;;;14.80;5.65;;;;;;;;;;5090538;28;20394;-75
2022/11/07 06:55:21;;;;;;;14.55;6.05;;;;;;;;;;5081844;28;20439;-75
2022/11/07 06:57:47;;;;;;;17.03;7.17;;;;;;;;;;5077085;28;20423;-76
2022/11/07 07:00:14;;;;;;;19.75;8.02;;;;;;;;;;5063460;28;20448;-76
2022/11/07 07:02:40;;;;;;;19.17;8.20;;;;;;;;;;5063330;28;20502;-76
2022/11/07 07:05:06;;;;;;;20.45;9.27;;;;;;;;;;5091619;28;20429;-77
2022/11/07 07:07:32;;;;;;;22.27;9.53;;;;;;;;;;5092662;28;20422;-76
2022/11/07 07:09:58;;;;;;;22.45;9.77;;;;;;;;;;5080759;28;20491;-78
2022/11/07 07:12:25;;;;;;;26.80;10.45;;;;;;;;;;5082386;28;20518;-77
2022/11/07 07:14:51;;;;;;;24.60;10.48;;;;;;;;;;5071474;28;20431;-77
2022/11/07 07:17:17;;;;;;;29.65;11.48;;;;;;;;;;5041768;28;20429;-78
2022/11/07 07:19:43;;;;;;;24.67;11.47;;;;;;;;;;5049000;28;20414;-79
2022/11/07 07:22:13;;;;;;;26.90;11.90;;;;;;;;;;5061643;28;20775;-78
2022/11/07 07:24:39;;;;;;;28.85;13.45;;;;;;;;;;5056049;28;20418;-78
2022/11/07 07:27:06;;;;;;;27.57;12.27;;;;;;;;;;5084763;28;20778;-78
2022/11/07 07:29:32;;;;;;;24.70;12.55;;;;;;;;;;5035959;28;20863;-79
2022/11/07 07:31:58;;;;;;;36.28;14.00;;;;;;;;;;5030154;28;20498;-79
2022/11/07 07:34:24;;;;;;;40.28;15.75;;;;;;;;;;5005394;28;20499;-78
2022/11/07 07:36:52;;;;;;;29.97;13.30;;;;;;;;;;5022221;28;20472;-78
2022/11/07 07:39:19;;;;;;;30.03;13.47;;;;;;;;;;5045862;28;20789;-78
2022/11/07 07:41:46;;;;;;;26.48;12.55;;;;;;;;;;5014958;28;20422;-78
2022/11/07 07:44:13;;;;;;;48.95;15.45;;;;;;;;;;5031938;28;20573;-78
2022/11/07 07:46:39;;;;;;;26.05;12.20;;;;;;;;;;5019762;28;20432;-79
2022/11/07 07:49:05;;;;;;;30.20;12.63;;;;;;;;;;5045106;28;20542;-78
2022/11/07 07:51:31;;;;;;;25.92;11.98;;;;;;;;;;5050791;28;20773;-78
2022/11/07 07:53:57;;;;;;;26.33;13.30;;;;;;;;;;5045397;28;20949;-78
2022/11/07 07:56:23;;;;;;;27.13;12.93;;;;;;;;;;5022590;28;20460;-78
2022/11/07 07:58:49;;;;;;;25.60;12.55;;;;;;;;;;5048562;28;20421;-78
2022/11/07 08:01:15;;;;;;;52.20;15.82;;;;;;;;;;5034090;28;20441;-77
2022/11/07 08:03:41;;;;;;;27.75;12.57;;;;;;;;;;5023655;28;20461;-78
2022/11/07 08:06:09;;;;;;;27.70;12.82;;;10.80;99.90;;;;;;5023965;28;20428;-78
2022/11/07 08:08:35;;;;;;;27.63;11.87;;;;;;;;;;5043199;28;20941;-78
2022/11/07 08:11:03;;;;;;;24.48;11.88;;;;;;;;;;5012698;28;20422;-78
2022/11/07 08:13:29;;;;;;;24.33;11.43;;;;;;;;;;5021602;28;20417;-78
2022/11/07 08:15:55;;;;;;;28.13;11.93;;;;;;;;;;5007248;28;20473;-77
2022/11/07 08:18:22;;;;;;;30.30;13.67;;;;;;;;;;5023169;28;20432;-76
2022/11/07 08:20:53;;;;;;;25.38;10.52;;;11.40;99.90;;;;;;5030308;28;20431;-77
2022/11/07 08:23:19;;;;;;;23.35;11.07;;;11.20;99.90;;;;;;5011469;28;20434;-78
2022/11/07 08:25:50;;;;;;;24.57;11.40;;;;;;;;;;5037347;28;20426;-78
2022/11/07 08:28:16;;;;;;;24.83;10.55;;;;;;;;;;5059496;28;21191;-77
2022/11/07 08:30:42;;;;;;;24.73;10.77;;;;;;;;;;5062607;28;20421;-77
2022/11/07 08:33:08;;;;;;;25.75;10.02;;;;;;;;;;5069378;28;20420;-78
2022/11/07 08:35:34;;;;;;;22.48;9.93;;;;;;;;;;5050185;28;20502;-78
2022/11/07 08:38:01;;;;;;;22.60;9.97;;;;;;;;;;5050144;28;20431;-77
2022/11/07 08:40:27;;;;;;;26.55;10.32;;;11.40;99.90;;;;;;5053086;28;20453;-77
2022/11/07 08:42:58;;;;;;;24.08;9.52;;;11.50;99.90;;;;;;5063274;28;20428;-77
2022/11/07 08:45:24;;;;;;;22.07;9.87;;;;;;;;;;5073440;28;20564;-78
2022/11/07 08:47:50;;;;;;;27.02;10.20;;;;;;;;;;5057498;28;20425;-78
2022/11/07 08:50:16;;;;;;;21.00;9.02;;;;;;;;;;5058185;28;20394;-78
2022/11/07 08:52:42;;;;;;;22.08;8.55;;;;;;;;;;5094007;28;20480;-77
2022/11/07 08:55:08;;;;;;;23.20;8.47;;;;;;;;;;5077165;28;20421;-77
2022/11/07 08:57:34;;;;;;;20.50;8.40;;;;;;;;;;5062687;28;20427;-77
2022/11/07 09:00:01;;;;;;;20.50;8.05;;;;;;;;;;5072561;28;20445;-77
2022/11/07 09:02:27;;;;;;;19.70;7.13;;;;;;;;;;5092811;28;20397;-77
2022/11/07 09:04:53;;;;;;;26.02;7.57;;;;;;;;;;5065449;28;20421;-77
2022/11/07 09:07:19;;;;;;;21.05;6.95;;;;;;;;;;5073953;28;20424;-77
2022/11/07 09:09:45;;;;;;;22.63;8.15;;;;;;;;;;5093271;28;20516;-78
2022/11/07 09:12:11;;;;;;;17.42;7.43;;;;;;;;;;5077060;28;20398;-75
2022/11/07 09:14:37;;;;;;;19.65;7.72;;;;;;;;;;5079198;28;20443;-76
2022/11/07 09:17:03;;;;;;;19.75;7.85;;;;;;;;;;5092608;28;20421;-76
2022/11/07 09:19:29;;;;;;;18.70;7.18;;;;;;;;;;5081773;28;20513;-75
2022/11/07 09:21:56;;;;;;;20.23;8.05;;;;;;;;;;5075105;28;20420;-75
2022/11/07 09:24:22;;;;;;;21.05;7.13;;;;;;;;;;5087963;28;20422;-75
2022/11/07 09:26:48;;;;;;;21.60;7.63;;;;;;;;;;5086177;28;20989;-76
2022/11/07 09:29:14;;;;;;;21.67;7.60;;;;;;;;;;5051267;28;20425;-76
2022/11/07 09:31:40;;;;;;;19.20;6.90;;;;;;;;;;5069850;28;20408;-75
2022/11/07 09:34:06;;;;;;;18.17;7.05;;;;;;;;;;5068989;28;20423;-75
2022/11/07 09:36:33;;;;;;;19.83;6.82;;;;;;;;;;5072801;28;20403;-75
2022/11/07 09:38:59;;;;;;;16.52;6.72;;;;;;;;;;5069381;28;20449;-74
2022/11/07 09:41:32;;;;;;;20.70;7.70;;;;;;;;;;5058224;28;20443;-75
2022/11/07 09:43:58;;;;;;;15.63;6.90;;;;;;;;;;5081827;28;20429;-76
2022/11/07 09:46:32;;;;;;;17.73;7.65;;;;;;;;;;5072914;28;20425;-75
2022/11/07 09:49:11;;;;;;;21.08;8.13;;;11.90;99.90;;;;;;5075426;28;20540;-76
2022/11/07 09:51:41;;;;;;;19.50;7.83;;;11.90;99.90;;;;;;5073528;28;20476;-76
2022/11/07 09:54:12;;;;;;;17.40;7.13;;;;;;;;;;5077826;28;20786;-75
2022/11/07 09:56:41;;;;;;;25.33;8.00;;;12.00;99.90;;;;;;5067153;28;20416;-76
2022/11/07 09:59:12;;;;;;;18.77;7.35;;;;;;;;;;5065536;28;20428;-76
2022/11/07 10:01:38;;;;;;;22.88;7.57;;;;;;;;;;5062633;28;20420;-75
2022/11/07 10:04:05;;;;;;;21.83;7.35;;;;;;;;;;5056563;28;20432;-76
2022/11/07 10:06:34;;;;;;;18.38;7.35;;;12.00;99.90;;;;;;5052791;28;21123;-74
2022/11/07 10:09:19;;;;;;;17.38;7.30;;;;;;;;;;5052585;28;20451;-74
2022/11/07 10:11:50;;;;;;;16.00;6.45;;;12.40;99.90;;;;;;5086672;28;20426;-74
2022/11/07 10:14:48;;;;;;;16.05;6.90;;;12.30;99.90;;;;;;5052359;28;20422;-74
2022/11/07 10:17:17;;;;;;;16.73;6.20;;;;;;;;;;5080462;28;20417;-75
2022/11/07 10:20:07;;;;;;;15.82;6.25;;;12.10;99.90;;;;;;5082688;28;20417;-75
2022/11/07 10:22:37;;;;;;;16.58;6.00;;;;;;;;;;5081769;28;20418;-75
2022/11/07 10:25:30;;;;;;;20.67;6.00;;;12.60;99.90;;;;;;5070835;28;20920;-74
2022/11/07 10:27:59;;;;;;;16.80;5.60;;;;;;;;;;5085802;28;20787;-75
2022/11/07 10:30:25;;;;;;;14.80;5.40;;;;;;;;;;5073957;28;20427;-74
2022/11/07 10:33:29;;;;;;;18.35;5.47;;;12.50;99.90;;;;;;5084694;28;20493;-74
2022/11/07 10:36:30;;;;;;;13.38;5.80;;;12.50;99.90;;;;;;5060872;28;20546;-75
2022/11/07 10:38:57;;;;;;;14.70;5.57;;;;;;;;;;5044579;28;20444;-75
2022/11/07 10:41:29;;;;;;;13.75;5.45;;;;;;;;;;5067747;28;20423;-76
2022/11/07 10:44:03;;;;;;;16.37;5.40;;;12.50;99.90;;;;;;5061802;28;20453;-76
2022/11/07 10:46:46;;;;;;;17.88;5.65;;;;;;;;;;5070410;28;20409;-76
2022/11/07 10:49:15;;;;;;;15.52;5.32;;;;;;;;;;5056020;28;20947;-78
2022/11/07 10:51:41;;;;;;;16.13;5.05;;;;;;;;;;5074792;28;20541;-78
2022/11/07 10:54:18;;;;;;;15.93;4.95;;;;;;;;;;5074456;28;21064;-78
2022/11/07 10:56:45;;;;;;;12.83;5.00;;;;;;;;;;5066504;28;20828;-79
2022/11/07 10:59:13;;;;;;;13.38;4.93;;;;;;;;;;5061420;28;20752;-78
2022/11/07 11:01:39;;;;;;;14.55;5.55;;;;;;;;;;5058492;28;20479;-78
2022/11/07 11:04:05;;;;;;;15.65;5.35;;;;;;;;;;5063562;28;20479;-79
2022/11/07 11:06:31;;;;;;;14.63;5.18;;;;;;;;;;5069668;28;20457;-78
2022/11/07 11:08:58;;;;;;;14.82;5.22;;;;;;;;;;5035133;28;20421;-77
2022/11/07 11:11:29;;;;;;;16.92;5.43;;;;;;;;;;5040518;28;20425;-77
2022/11/07 11:14:05;;;;;;;16.10;5.45;;;;;;;;;;5057700;28;20467;-78
2022/11/07 11:16:34;;;;;;;17.30;5.28;;;13.10;99.90;;;;;;5091236;28;20407;-78
2022/11/07 11:19:01;;;;;;;14.23;5.10;;;13.10;99.90;;;;;;5071244;28;20572;-78
2022/11/07 11:21:38;;;;;;;14.93;5.60;;;;;;;;;;5076615;28;20417;-78
2022/11/07 11:24:11;;;;;;;13.40;5.35;;;;;;;;;;5061128;28;20452;-78
2022/11/07 11:26:40;;;;;;;15.75;5.30;;;13.30;99.90;;;;;;5073451;28;20429;-77
2022/11/07 11:29:41;;;;;;;14.65;5.38;;;;;;;;;;5078666;28;20439;-77
2022/11/07 11:32:30;;;;;;;15.90;6.10;;;13.00;99.90;;;;;;5013095;28;20414;-76
2022/11/07 11:35:04;;;;;;;14.50;5.38;;;;;;;;;;5056698;28;20417;-77
2022/11/07 11:37:33;;;;;;;15.33;5.60;;;;;;;;;;5051296;28;20421;-77
2022/11/07 11:40:01;;;;;;;16.13;5.75;;;;;;;;;;5044978;28;20440;-78
2022/11/07 11:42:30;;;;;;;12.57;5.10;;;;;;;;;;5063934;28;20420;-78
2022/11/07 11:44:58;;;;;;;16.98;5.47;;;;;;;;;;5054896;28;20409;-78
2022/11/07 11:47:33;;;;;;;15.17;5.23;;;;;;;;;;5070897;28;20505;-78
2022/11/07 11:50:02;;;;;;;15.77;5.30;;;;;;;;;;5055879;28;20417;-78
2022/11/07 11:52:32;;;;;;;15.00;5.07;;;;;;;;;;5078805;28;20793;-77
2022/11/07 11:55:00;;;;;;;15.63;5.37;;;;;;;;;;5064718;28;21071;-78
2022/11/07 11:57:36;;;;;;;14.70;5.45;;;;;;;;;;5077974;28;20948;-77
2022/11/07 12:00:16;;;;;;;14.63;5.20;;;14.00;99.90;;;;;;5064092;28;20463;-76
2022/11/07 12:02:46;;;;;;;11.57;4.80;;;;;;;;;;5085600;28;20424;-77
2022/11/07 12:05:15;;;;;;;12.73;4.93;;;;;;;;;;5075420;28;20904;-77
2022/11/07 12:08:06;;;;;;;17.03;5.67;;;;;;;;;;5060458;28;20420;-77
2022/11/07 12:10:35;;;;;;;11.57;4.80;;;;;;;;;;5052855;28;20407;-75
2022/11/07 12:13:37;;;;;;;11.73;4.65;;;13.90;99.90;;;;;;5074986;28;20410;-75
2022/11/07 12:16:42;;;;;;;11.03;4.67;;;14.10;99.90;;;;;;5056187;28;21372;-75
2022/11/07 12:19:08;;;;;;;12.80;4.57;;;;;;;;;;5055978;28;20429;-75
2022/11/07 12:22:08;;;;;;;12.13;4.22;;;13.90;99.90;;;;;;5084093;28;20762;-75
2022/11/07 12:24:34;;;;;;;10.93;4.28;;;14.20;99.90;;;;;;5084693;28;20425;-75
2022/11/07 12:27:32;;;;;;;12.97;4.53;;;14.10;99.90;;;;;;5068094;28;20938;-75
2022/11/07 12:30:08;;;;;;;11.00;4.13;;;;;;;;;;5080655;28;20437;-75
2022/11/07 12:32:40;;;;;;;12.60;4.15;;;14.50;99.90;;;;;;5071954;28;20974;-75
2022/11/07 12:35:29;;;;;;;12.75;3.83;;;14.20;99.90;;;;;;5075216;28;20555;-74
2022/11/07 12:38:21;;;;;;;10.30;3.53;;;14.50;99.90;;;;;;5073871;28;20989;-75
2022/11/07 12:40:53;;;;;;;12.80;3.80;;;;;;;;;;5056422;28;20410;-75
2022/11/07 12:43:22;;;;;;;9.33;3.30;;;;;;;;;;5052433;28;20418;-75
2022/11/07 12:45:48;;;;;;;12.90;4.03;;;;;;;;;;5062438;28;20493;-75
2022/11/07 12:48:21;;;;;;;10.57;3.50;;;;;;;;;;5075765;28;20504;-75
2022/11/07 12:50:58;;;;;;;10.90;3.58;;;14.40;99.90;;;;;;5073230;28;20463;-76
2022/11/07 12:53:33;;;;;;;12.43;3.85;;;;;;;;;;5049420;28;20779;-75
2022/11/07 12:56:07;;;;;;;11.13;3.78;;;;;;;;;;5060469;28;20945;-75
2022/11/07 12:58:34;;;;;;;10.38;3.72;;;;;;;;;;5062009;28;20493;-75
2022/11/07 13:01:01;;;;;;;13.83;4.10;;;;;;;;;;5057501;28;20486;-75
2022/11/07 13:03:38;;;;;;;10.95;3.88;;;;;;;;;;5069970;28;20462;-75
2022/11/07 13:06:13;;;;;;;12.75;4.10;;;;;;;;;;5081793;28;20483;-75
2022/11/07 13:08:58;;;;;;;10.68;4.20;;;;;;;;;;5064711;28;20465;-75
2022/11/07 13:11:28;;;;;;;15.00;4.82;;;;;;;;;;5067168;28;20426;-74
2022/11/07 13:14:07;;;;;;;13.55;4.47;;;;;;;;;;5055287;28;20903;-74
2022/11/07 13:16:34;;;;;;;13.07;4.40;;;;;;;;;;5066324;28;20443;-74
2022/11/07 13:19:20;;;;;;;13.18;4.25;;;13.90;99.90;;;;;;5071008;28;20511;-74
2022/11/07 13:21:57;;;;;;;13.98;4.40;;;;;;;;;;5067371;28;20501;-75
2022/11/07 13:24:23;;;;;;;12.30;4.38;;;;;;;;;;5059355;28;20454;-75
2022/11/07 13:26:49;;;;;;;12.70;4.53;;;;;;;;;;5054792;28;20457;-78
2022/11/07 13:29:22;;;;;;;11.17;4.37;;;;;;;;;;5062240;28;20510;-78
2022/11/07 13:31:52;;;;;;;14.88;4.50;;;;;;;;;;5072993;28;20414;-78
2022/11/07 13:34:18;;;;;;;14.43;4.32;;;;;;;;;;5072742;28;20423;-77
2022/11/07 13:36:45;;;;;;;9.97;4.10;;;;;;;;;;5067087;28;20427;-78
2022/11/07 13:39:12;;;;;;;12.05;4.15;;;14.10;99.90;;;;;;5057487;28;20449;-77
2022/11/07 13:41:39;;;;;;;11.05;4.13;;;14.00;99.90;;;;;;5064072;28;20430;-78
2022/11/07 13:44:15;;;;;;;14.27;4.47;;;;;;;;;;5053201;28;20422;-77
2022/11/07 13:46:46;;;;;;;15.73;4.70;;;14.00;99.90;;;;;;5068521;28;20422;-77
2022/11/07 13:49:17;;;;;;;14.60;4.50;;;;;;;;;;5057000;28;20433;-78
2022/11/07 13:51:50;;;;;;;15.05;4.40;;;;;;;;;;5071335;28;20943;-78
2022/11/07 13:54:16;;;;;;;12.90;4.30;;;;;;;;;;5069444;28;20450;-77
2022/11/07 13:56:42;;;;;;;15.75;4.25;;;13.60;99.90;;;;;;5064515;28;20949;-77
2022/11/07 13:59:39;;;;;;;15.13;4.40;;;13.80;99.90;;;;;;5072731;28;20502;-77
2022/11/07 14:02:06;;;;;;;12.25;4.40;;;;;;;;;;5048019;28;20429;-79
2022/11/07 14:04:32;;;;;;;14.43;4.37;;;;;;;;;;5062135;28;20423;-79
2022/11/07 14:07:00;;;;;;;13.38;4.70;;;;;;;;;;5072664;28;20752;-78
2022/11/07 14:09:27;;;;;;;13.77;4.55;;;;;;;;;;5071043;28;20764;-78
2022/11/07 14:11:54;;;;;;;13.75;4.55;;;;;;;;;;5090771;28;20932;-78
2022/11/07 14:14:25;;;;;;;14.32;4.55;;;14.00;99.90;;;;;;5092678;28;20404;-78
2022/11/07 14:16:51;;;;;;;17.48;4.97;;;;;;;;;;5068278;28;20510;-78
2022/11/07 14:19:29;;;;;;;17.33;5.43;;;;;;;;;;5074737;28;20420;-79
2022/11/07 14:21:56;;;;;;;15.00;5.03;;;13.90;99.90;;;;;;5067289;28;20428;-79
2022/11/07 14:24:30;;;;;;;14.30;5.03;;;13.70;99.90;;;;;;5059027;28;20813;-79
2022/11/07 14:26:57;;;;;;;16.92;5.07;;;;;;;;;;5064306;28;20478;-78
2022/11/07 14:29:23;;;;;;;16.10;5.20;;;;;;;;;;5074213;28;21007;-79
2022/11/07 14:31:49;;;;;;;16.20;4.63;;;;;;;;;;5051132;28;20504;-79
2022/11/07 14:34:17;;;;;;;14.75;4.78;;;13.60;99.90;;;;;;5069386;28;20418;-80